sensor_id;sensor_type;location;lat;lon;timestamp;temperature;humidity
57030;DHT22;42920;45.306;20.448;2022-08-25T00:01:28;563.80;2432.00
57030;DHT22;42920;45.306;20.448;2022-08-25T00:03:55;563.70;2432.00
57030;DHT22;42920;45.306;20.448;2022-08-25T00:06:22;563.80;2432.00
57030;DHT22;42920;45.306;20.448;2022-08-25T00:08:48;563.70;2432.00
57030;DHT22;42920;45.306;20.448;2022-08-25T00:11:23;563.70;2432.00
57030;DHT22;42920;45.306;20.448;2022-08-25T00:13:52;563.70;2432.00
57030;DHT22;42920;45.306;20.448;2022-08-25T00:16:19;563.60;2432.00
57030;DHT22;42920;45.306;20.448;2022-08-25T00:18:48;563.60;2432.00
57030;DHT22;42920;45.306;20.448;2022-08-25T00:21:15;563.60;2432.00
57030;DHT22;42920;45.306;20.448;2022-08-25T00:23:41;563.60;2432.00
57030;DHT22;42920;45.306;20.448;2022-08-25T00:26:08;563.60;2432.00
57030;DHT22;42920;45.306;20.448;2022-08-25T00:28:34;563.50;2432.00
57030;DHT22;42920;45.306;20.448;2022-08-25T01:47:39;538.40;2406.40
57030;DHT22;42920;45.306;20.448;2022-08-25T01:50:05;538.50;2406.40
57030;DHT22;42920;45.306;20.448;2022-08-25T01:52:38;563.20;2432.00
57030;DHT22;42920;45.306;20.448;2022-08-25T01:55:09;538.50;2406.40
57030;DHT22;42920;45.306;20.448;2022-08-25T01:57:35;538.50;2406.40
57030;DHT22;42920;45.306;20.448;2022-08-25T02:00:00;538.50;2406.40
57030;DHT22;42920;45.306;20.448;2022-08-25T02:02:26;538.50;2406.40
57030;DHT22;42920;45.306;20.448;2022-08-25T02:04:52;538.50;2406.40
57030;DHT22;42920;45.306;20.448;2022-08-25T02:07:19;538.50;2406.40
57030;DHT22;42920;45.306;20.448;2022-08-25T02:09:45;538.50;2406.40
57030;DHT22;42920;45.306;20.448;2022-08-25T02:12:10;538.50;2406.40
57030;DHT22;42920;45.306;20.448;2022-08-25T02:14:36;538.50;2406.40
57030;DHT22;42920;45.306;20.448;2022-08-25T02:17:04;538.50;2406.40
57030;DHT22;42920;45.306;20.448;2022-08-25T02:19:30;538.30;2406.40
57030;DHT22;42920;45.306;20.448;2022-08-25T02:21:57;538.30;2176.00
57030;DHT22;42920;45.306;20.448;2022-08-25T02:24:23;538.40;2406.40
57030;DHT22;42920;45.306;20.448;2022-08-25T02:26:49;538.30;2406.40
57030;DHT22;42920;45.306;20.448;2022-08-25T02:29:15;538.00;2406.40
57030;DHT22;42920;45.306;20.448;2022-08-25T02:31:42;538.00;2406.40
57030;DHT22;42920;45.306;20.448;2022-08-25T02:34:09;538.00;2406.40
57030;DHT22;42920;45.306;20.448;2022-08-25T02:36:36;538.00;2406.40
57030;DHT22;42920;45.306;20.448;2022-08-25T02:39:04;538.10;2406.40
57030;DHT22;42920;45.306;20.448;2022-08-25T02:41:30;538.20;2406.40
57030;DHT22;42920;45.306;20.448;2022-08-25T02:43:59;538.00;2406.40
57030;DHT22;42920;45.306;20.448;2022-08-25T02:46:26;538.10;2406.40
57030;DHT22;42920;45.306;20.448;2022-08-25T02:48:52;538.00;2406.40
57030;DHT22;42920;45.306;20.448;2022-08-25T02:51:19;538.00;2406.40
57030;DHT22;42920;45.306;20.448;2022-08-25T02:53:45;538.10;2406.40
57030;DHT22;42920;45.306;20.448;2022-08-25T02:56:13;538.20;2406.40
57030;DHT22;42920;45.306;20.448;2022-08-25T02:58:40;538.30;2406.40
57030;DHT22;42920;45.306;20.448;2022-08-25T03:01:07;538.30;2406.40
57030;DHT22;42920;45.306;20.448;2022-08-25T03:03:40;538.40;2406.40
57030;DHT22;42920;45.306;20.448;2022-08-25T03:06:07;538.40;2406.40
57030;DHT22;42920;45.306;20.448;2022-08-25T03:08:34;538.40;2406.40
57030;DHT22;42920;45.306;20.448;2022-08-25T03:11:00;538.50;2278.40
57030;DHT22;42920;45.306;20.448;2022-08-25T03:13:26;538.50;2099.20
57030;DHT22;42920;45.306;20.448;2022-08-25T03:15:52;538.50;2048.00
57030;DHT22;42920;45.306;20.448;2022-08-25T03:18:18;538.40;2278.40
57030;DHT22;42920;45.306;20.448;2022-08-25T03:20:44;538.40;2124.80
57030;DHT22;42920;45.306;20.448;2022-08-25T03:23:10;538.40;2278.40
57030;DHT22;42920;45.306;20.448;2022-08-25T03:25:39;538.50;2406.40
57030;DHT22;42920;45.306;20.448;2022-08-25T03:28:23;538.50;2406.40
57030;DHT22;42920;45.306;20.448;2022-08-25T03:30:49;538.50;2406.40
57030;DHT22;42920;45.306;20.448;2022-08-25T03:33:15;538.50;2406.40
57030;DHT22;42920;45.306;20.448;2022-08-25T03:35:41;538.50;2406.40
57030;DHT22;42920;45.306;20.448;2022-08-25T03:38:06;538.50;2406.40
57030;DHT22;42920;45.306;20.448;2022-08-25T03:40:32;538.50;2406.40
57030;DHT22;42920;45.306;20.448;2022-08-25T03:42:58;538.50;2406.40
57030;DHT22;42920;45.306;20.448;2022-08-25T03:45:24;538.50;2406.40
57030;DHT22;42920;45.306;20.448;2022-08-25T03:47:51;538.40;2406.40
57030;DHT22;42920;45.306;20.448;2022-08-25T03:50:19;538.50;2406.40
57030;DHT22;42920;45.306;20.448;2022-08-25T03:52:50;538.50;2406.40
57030;DHT22;42920;45.306;20.448;2022-08-25T03:55:16;538.50;2406.40
57030;DHT22;42920;45.306;20.448;2022-08-25T03:57:42;538.40;2406.40
57030;DHT22;42920;45.306;20.448;2022-08-25T04:00:09;538.40;2406.40
57030;DHT22;42920;45.306;20.448;2022-08-25T04:02:37;538.30;2406.40
57030;DHT22;42920;45.306;20.448;2022-08-25T04:05:03;538.40;2406.40
57030;DHT22;42920;45.306;20.448;2022-08-25T04:07:29;538.40;2406.40
57030;DHT22;42920;45.306;20.448;2022-08-25T04:09:54;538.40;2406.40
57030;DHT22;42920;45.306;20.448;2022-08-25T04:12:21;538.20;2406.40
57030;DHT22;42920;45.306;20.448;2022-08-25T04:14:46;538.10;2406.40
57030;DHT22;42920;45.306;20.448;2022-08-25T04:17:12;538.10;2406.40
57030;DHT22;42920;45.306;20.448;2022-08-25T04:19:38;538.00;2406.40
57030;DHT22;42920;45.306;20.448;2022-08-25T04:22:04;538.20;2406.40
57030;DHT22;42920;45.306;20.448;2022-08-25T04:24:30;538.30;2406.40
57030;DHT22;42920;45.306;20.448;2022-08-25T04:26:57;538.30;2406.40
57030;DHT22;42920;45.306;20.448;2022-08-25T04:29:24;538.40;2406.40
57030;DHT22;42920;45.306;20.448;2022-08-25T04:31:50;538.40;2406.40
57030;DHT22;42920;45.306;20.448;2022-08-25T04:34:17;538.40;2406.40
57030;DHT22;42920;45.306;20.448;2022-08-25T04:36:45;538.40;2406.40
57030;DHT22;42920;45.306;20.448;2022-08-25T04:39:11;538.40;2406.40
57030;DHT22;42920;45.306;20.448;2022-08-25T04:41:37;538.30;2406.40
57030;DHT22;42920;45.306;20.448;2022-08-25T04:44:04;538.40;2406.40
57030;DHT22;42920;45.306;20.448;2022-08-25T04:46:31;538.40;2406.40
57030;DHT22;42920;45.306;20.448;2022-08-25T04:48:59;538.40;2406.40
57030;DHT22;42920;45.306;20.448;2022-08-25T04:51:31;538.40;2406.40
57030;DHT22;42920;45.306;20.448;2022-08-25T04:54:01;538.40;2406.40
57030;DHT22;42920;45.306;20.448;2022-08-25T04:56:27;538.30;2406.40
57030;DHT22;42920;45.306;20.448;2022-08-25T04:58:54;538.40;2406.40
57030;DHT22;42920;45.306;20.448;2022-08-25T05:01:23;538.40;2406.40
57030;DHT22;42920;45.306;20.448;2022-08-25T05:03:57;538.40;2406.40
57030;DHT22;42920;45.306;20.448;2022-08-25T05:06:24;538.40;2406.40
57030;DHT22;42920;45.306;20.448;2022-08-25T05:08:51;538.40;2406.40
57030;DHT22;42920;45.306;20.448;2022-08-25T05:11:21;538.30;2406.40
57030;DHT22;42920;45.306;20.448;2022-08-25T05:13:49;538.30;2406.40
57030;DHT22;42920;45.306;20.448;2022-08-25T05:16:16;538.30;2304.00
57030;DHT22;42920;45.306;20.448;2022-08-25T05:18:42;538.40;2406.40
57030;DHT22;42920;45.306;20.448;2022-08-25T05:21:15;538.30;2406.40
57030;DHT22;42920;45.306;20.448;2022-08-25T05:23:41;538.50;2278.40
57030;DHT22;42920;45.306;20.448;2022-08-25T05:26:10;538.50;2406.40
57030;DHT22;42920;45.306;20.448;2022-08-25T05:28:37;563.20;2278.40
57030;DHT22;42920;45.306;20.448;2022-08-25T05:31:06;563.30;2432.00
57030;DHT22;42920;45.306;20.448;2022-08-25T05:33:33;563.20;2432.00
57030;DHT22;42920;45.306;20.448;2022-08-25T05:35:59;563.30;2432.00
57030;DHT22;42920;45.306;20.448;2022-08-25T05:38:25;563.20;2432.00
57030;DHT22;42920;45.306;20.448;2022-08-25T05:41:02;563.30;2432.00
57030;DHT22;42920;45.306;20.448;2022-08-25T05:43:29;563.30;2432.00
57030;DHT22;42920;45.306;20.448;2022-08-25T05:45:56;563.30;2432.00
57030;DHT22;42920;45.306;20.448;2022-08-25T05:48:23;563.30;2432.00
57030;DHT22;42920;45.306;20.448;2022-08-25T05:50:53;563.40;2432.00
57030;DHT22;42920;45.306;20.448;2022-08-25T05:53:20;563.30;2432.00
57030;DHT22;42920;45.306;20.448;2022-08-25T05:55:47;563.40;2432.00
57030;DHT22;42920;45.306;20.448;2022-08-25T05:58:13;563.30;2432.00
57030;DHT22;42920;45.306;20.448;2022-08-25T06:00:40;538.30;2406.40
57030;DHT22;42920;45.306;20.448;2022-08-25T06:03:06;563.30;2432.00
57030;DHT22;42920;45.306;20.448;2022-08-25T06:05:32;563.40;2432.00
57030;DHT22;42920;45.306;20.448;2022-08-25T06:07:58;563.50;2432.00
57030;DHT22;42920;45.306;20.448;2022-08-25T06:10:24;563.30;2432.00
57030;DHT22;42920;45.306;20.448;2022-08-25T06:12:50;563.20;2432.00
57030;DHT22;42920;45.306;20.448;2022-08-25T06:15:19;563.40;2432.00
57030;DHT22;42920;45.306;20.448;2022-08-25T06:17:45;563.50;2432.00
57030;DHT22;42920;45.306;20.448;2022-08-25T06:36:34;563.60;2432.00
57030;DHT22;42920;45.306;20.448;2022-08-25T06:39:04;589.20;2432.00
57030;DHT22;42920;45.306;20.448;2022-08-25T06:41:30;589.40;2432.00
57030;DHT22;42920;45.306;20.448;2022-08-25T06:43:57;614.50;2432.00
57030;DHT22;42920;45.306;20.448;2022-08-25T06:46:25;589.50;2432.00
57030;DHT22;42920;45.306;20.448;2022-08-25T06:48:52;589.50;2432.00
57030;DHT22;42920;45.306;20.448;2022-08-25T06:51:20;589.50;2432.00
57030;DHT22;42920;45.306;20.448;2022-08-25T06:53:47;589.70;2432.00
57030;DHT22;42920;45.306;20.448;2022-08-25T06:56:18;589.70;2432.00
57030;DHT22;42920;45.306;20.448;2022-08-25T06:58:45;614.40;2432.00
57030;DHT22;42920;45.306;20.448;2022-08-25T07:01:14;614.40;2432.00
57030;DHT22;42920;45.306;20.448;2022-08-25T07:03:41;614.50;2432.00
57030;DHT22;42920;45.306;20.448;2022-08-25T07:06:07;614.70;2432.00
57030;DHT22;42920;45.306;20.448;2022-08-25T07:08:33;614.70;2432.00
57030;DHT22;42920;45.306;20.448;2022-08-25T07:11:07;614.60;2432.00
57030;DHT22;42920;45.306;20.448;2022-08-25T07:13:34;614.90;2432.00
57030;DHT22;42920;45.306;20.448;2022-08-25T07:16:01;615.00;2432.00
57030;DHT22;42920;45.306;20.448;2022-08-25T07:18:27;615.00;2432.00
57030;DHT22;42920;45.306;20.448;2022-08-25T07:20:53;615.20;2432.00
57030;DHT22;42920;45.306;20.448;2022-08-25T07:23:21;615.30;2432.00
57030;DHT22;42920;45.306;20.448;2022-08-25T07:25:47;615.30;2432.00
57030;DHT22;42920;45.306;20.448;2022-08-25T07:28:14;640.10;2432.00
57030;DHT22;42920;45.306;20.448;2022-08-25T07:30:40;640.20;2432.00
57030;DHT22;42920;45.306;20.448;2022-08-25T07:33:06;640.30;2432.00
57030;DHT22;42920;45.306;20.448;2022-08-25T07:35:32;640.50;2432.00
57030;DHT22;42920;45.306;20.448;2022-08-25T07:37:58;640.50;2432.00
57030;DHT22;42920;45.306;20.448;2022-08-25T07:40:30;640.50;2432.00
57030;DHT22;42920;45.306;20.448;2022-08-25T07:42:58;640.60;2432.00
57030;DHT22;42920;45.306;20.448;2022-08-25T07:45:27;640.70;2432.00
57030;DHT22;42920;45.306;20.448;2022-08-25T07:48:07;640.70;2432.00
57030;DHT22;42920;45.306;20.448;2022-08-25T07:50:35;640.70;2432.00
57030;DHT22;42920;45.306;20.448;2022-08-25T07:53:03;665.60;2432.00
57030;DHT22;42920;45.306;20.448;2022-08-25T07:55:30;665.60;2432.00
57030;DHT22;42920;45.306;20.448;2022-08-25T07:57:57;665.60;2432.00
57030;DHT22;42920;45.306;20.448;2022-08-25T08:00:25;665.70;2432.00
57030;DHT22;42920;45.306;20.448;2022-08-25T08:02:56;665.70;2432.00
57030;DHT22;42920;45.306;20.448;2022-08-25T08:05:23;665.90;2432.00
57030;DHT22;42920;45.306;20.448;2022-08-25T08:07:51;665.90;2432.00
57030;DHT22;42920;45.306;20.448;2022-08-25T08:10:17;665.90;2432.00
57030;DHT22;42920;45.306;20.448;2022-08-25T08:12:43;666.00;2432.00
57030;DHT22;42920;45.306;20.448;2022-08-25T08:15:09;666.00;2432.00
57030;DHT22;42920;45.306;20.448;2022-08-25T08:17:34;666.10;2432.00
57030;DHT22;42920;45.306;20.448;2022-08-25T08:20:00;666.20;2432.00
57030;DHT22;42920;45.306;20.448;2022-08-25T08:22:26;666.30;2432.00
57030;DHT22;42920;45.306;20.448;2022-08-25T08:24:53;666.30;2432.00
57030;DHT22;42920;45.306;20.448;2022-08-25T08:27:19;666.40;2432.00
57030;DHT22;42920;45.306;20.448;2022-08-25T08:29:45;666.40;2432.00
57030;DHT22;42920;45.306;20.448;2022-08-25T08:32:12;666.50;2432.00
57030;DHT22;42920;45.306;20.448;2022-08-25T08:34:39;691.30;2432.00
57030;DHT22;42920;45.306;20.448;2022-08-25T08:37:06;666.50;2432.00
57030;DHT22;42920;45.306;20.448;2022-08-25T08:39:32;691.20;2432.00
57030;DHT22;42920;45.306;20.448;2022-08-25T08:46:04;691.30;2432.00
57030;DHT22;42920;45.306;20.448;2022-08-25T08:48:43;691.40;2432.00
57030;DHT22;42920;45.306;20.448;2022-08-25T08:51:24;691.40;2432.00
57030;DHT22;42920;45.306;20.448;2022-08-25T08:54:04;691.50;2432.00
57030;DHT22;42920;45.306;20.448;2022-08-25T08:56:41;691.60;2432.00
57030;DHT22;42920;45.306;20.448;2022-08-25T08:59:30;691.70;2432.00
57030;DHT22;42920;45.306;20.448;2022-08-25T09:01:59;691.70;2432.00
57030;DHT22;42920;45.306;20.448;2022-08-25T09:04:41;691.80;2432.00
57030;DHT22;42920;45.306;20.448;2022-08-25T09:07:42;691.90;2432.00
57030;DHT22;42920;45.306;20.448;2022-08-25T09:10:09;692.00;2432.00
57030;DHT22;42920;45.306;20.448;2022-08-25T09:13:23;692.10;2432.00
57030;DHT22;42920;45.306;20.448;2022-08-25T09:21:42;716.90;2432.00
57030;DHT22;42920;45.306;20.448;2022-08-25T09:30:11;717.20;2432.00
57030;DHT22;42920;45.306;20.448;2022-08-25T09:32:46;717.40;2432.00
57030;DHT22;42920;45.306;20.448;2022-08-25T09:35:33;717.50;2432.00
57030;DHT22;42920;45.306;20.448;2022-08-25T09:38:05;717.50;2432.00
57030;DHT22;42920;45.306;20.448;2022-08-25T09:40:34;717.70;2432.00
57030;DHT22;42920;45.306;20.448;2022-08-25T09:43:03;742.50;2432.00
57030;DHT22;42920;45.306;20.448;2022-08-25T09:45:43;742.50;2432.00
57030;DHT22;42920;45.306;20.448;2022-08-25T09:48:31;742.60;2432.00
57030;DHT22;42920;45.306;20.448;2022-08-25T09:58:35;742.90;2432.00
57030;DHT22;42920;45.306;20.448;2022-08-25T10:01:06;742.90;2432.00
57030;DHT22;42920;45.306;20.448;2022-08-25T10:03:52;743.00;2432.00
57030;DHT22;42920;45.306;20.448;2022-08-25T10:23:53;793.70;2201.60
57030;DHT22;42920;45.306;20.448;2022-08-25T10:27:00;793.60;2201.60
57030;DHT22;42920;45.306;20.448;2022-08-25T10:32:11;768.90;2304.00
57030;DHT22;42920;45.306;20.448;2022-08-25T10:34:57;793.60;2227.20
57030;DHT22;42920;45.306;20.448;2022-08-25T10:42:36;794.30;2252.80
57030;DHT22;42920;45.306;20.448;2022-08-25T10:45:20;794.20;2176.00
57030;DHT22;42920;45.306;20.448;2022-08-25T10:50:36;768.70;2304.00
57030;DHT22;42920;45.306;20.448;2022-08-25T11:04:05;819.20;2124.80
57030;DHT22;42920;45.306;20.448;2022-08-25T11:06:56;819.30;1996.80
57030;DHT22;42920;45.306;20.448;2022-08-25T11:09:37;819.40;2022.40
57030;DHT22;42920;45.306;20.448;2022-08-25T11:12:09;819.60;1894.40
57030;DHT22;42920;45.306;20.448;2022-08-25T11:14:58;819.70;1971.20
57030;DHT22;42920;45.306;20.448;2022-08-25T11:17:55;819.80;1945.60
57030;DHT22;42920;45.306;20.448;2022-08-25T11:20:27;819.90;2048.00
57030;DHT22;42920;45.306;20.448;2022-08-25T11:23:16;819.70;2022.40
57030;DHT22;42920;45.306;20.448;2022-08-25T11:25:46;819.60;1996.80
57030;DHT22;42920;45.306;20.448;2022-08-25T11:28:35;819.80;1920.00
57030;DHT22;42920;45.306;20.448;2022-08-25T11:33:30;820.10;1894.40
57030;DHT22;42920;45.306;20.448;2022-08-25T11:36:09;844.80;1868.80
57030;DHT22;42920;45.306;20.448;2022-08-25T11:49:50;844.90;1843.20
57030;DHT22;42920;45.306;20.448;2022-08-25T12:00:47;844.80;1920.00
57030;DHT22;42920;45.306;20.448;2022-08-25T12:06:20;819.70;2022.40
57030;DHT22;42920;45.306;20.448;2022-08-25T12:09:16;844.80;1971.20
57030;DHT22;42920;45.306;20.448;2022-08-25T12:11:47;844.90;1971.20
57030;DHT22;42920;45.306;20.448;2022-08-25T12:14:37;845.10;1868.80
57030;DHT22;42920;45.306;20.448;2022-08-25T12:17:26;845.30;1843.20
57030;DHT22;42920;45.306;20.448;2022-08-25T12:20:02;845.40;1843.20
57030;DHT22;42920;45.306;20.448;2022-08-25T12:25:27;845.40;1766.40
57030;DHT22;42920;45.306;20.448;2022-08-25T12:31:10;845.40;1766.40
57030;DHT22;42920;45.306;20.448;2022-08-25T12:36:57;845.60;1843.20
57030;DHT22;42920;45.306;20.448;2022-08-25T12:39:35;845.70;1766.40
57030;DHT22;42920;45.306;20.448;2022-08-25T12:42:06;845.30;1843.20
57030;DHT22;42920;45.306;20.448;2022-08-25T12:44:43;845.50;1740.80
57030;DHT22;42920;45.306;20.448;2022-08-25T12:49:49;870.40;1766.40
57030;DHT22;42920;45.306;20.448;2022-08-25T12:52:17;870.40;1766.40
57030;DHT22;42920;45.306;20.448;2022-08-25T12:55:02;870.50;1715.20
57030;DHT22;42920;45.306;20.448;2022-08-25T12:57:44;870.90;1740.80
57030;DHT22;42920;45.306;20.448;2022-08-25T13:00:27;870.50;1766.40
57030;DHT22;42920;45.306;20.448;2022-08-25T13:08:33;870.60;1689.60
57030;DHT22;42920;45.306;20.448;2022-08-25T13:11:07;870.70;1664.00
57030;DHT22;42920;45.306;20.448;2022-08-25T13:13:54;870.80;1664.00
57030;DHT22;42920;45.306;20.448;2022-08-25T13:16:24;870.70;1664.00
57030;DHT22;42920;45.306;20.448;2022-08-25T13:18:52;870.50;1689.60
57030;DHT22;42920;45.306;20.448;2022-08-25T13:21:41;870.50;1766.40
57030;DHT22;42920;45.306;20.448;2022-08-25T13:24:20;845.60;1766.40
57030;DHT22;42920;45.306;20.448;2022-08-25T13:26:48;845.30;1740.80
57030;DHT22;42920;45.306;20.448;2022-08-25T13:29:19;845.10;1766.40
57030;DHT22;42920;45.306;20.448;2022-08-25T13:32:07;845.20;1792.00
57030;DHT22;42920;45.306;20.448;2022-08-25T13:34:38;845.20;1792.00
57030;DHT22;42920;45.306;20.448;2022-08-25T13:37:07;845.10;1817.60
57030;DHT22;42920;45.306;20.448;2022-08-25T13:40:22;844.90;1817.60
57030;DHT22;42920;45.306;20.448;2022-08-25T13:42:50;820.10;1843.20
57030;DHT22;42920;45.306;20.448;2022-08-25T13:45:23;820.00;1868.80
57030;DHT22;42920;45.306;20.448;2022-08-25T13:47:50;820.10;1843.20
57030;DHT22;42920;45.306;20.448;2022-08-25T13:50:30;820.00;1817.60
57030;DHT22;42920;45.306;20.448;2022-08-25T13:53:00;844.90;1817.60
57030;DHT22;42920;45.306;20.448;2022-08-25T13:57:58;845.30;1766.40
57030;DHT22;42920;45.306;20.448;2022-08-25T14:00:35;845.40;1561.60
57030;DHT22;42920;45.306;20.448;2022-08-25T14:03:03;845.60;1612.80
57030;DHT22;42920;45.306;20.448;2022-08-25T14:05:35;845.40;1664.00
57030;DHT22;42920;45.306;20.448;2022-08-25T14:08:02;845.00;1715.20
57030;DHT22;42920;45.306;20.448;2022-08-25T14:10:41;844.90;1766.40
57030;DHT22;42920;45.306;20.448;2022-08-25T14:13:14;844.80;1792.00
57030;DHT22;42920;45.306;20.448;2022-08-25T14:15:44;820.10;1817.60
57030;DHT22;42920;45.306;20.448;2022-08-25T14:18:17;844.80;1766.40
57030;DHT22;42920;45.306;20.448;2022-08-25T14:20:51;844.90;1817.60
57030;DHT22;42920;45.306;20.448;2022-08-25T14:23:21;845.00;1715.20
57030;DHT22;42920;45.306;20.448;2022-08-25T14:25:50;845.20;1664.00
57030;DHT22;42920;45.306;20.448;2022-08-25T14:28:20;845.30;1638.40
57030;DHT22;42920;45.306;20.448;2022-08-25T14:30:55;845.40;1561.60
57030;DHT22;42920;45.306;20.448;2022-08-25T14:33:25;845.40;1561.60
57030;DHT22;42920;45.306;20.448;2022-08-25T14:35:54;845.30;1536.00
57030;DHT22;42920;45.306;20.448;2022-08-25T14:38:23;845.20;1510.40
57030;DHT22;42920;45.306;20.448;2022-08-25T14:40:49;845.10;1484.80
57030;DHT22;42920;45.306;20.448;2022-08-25T14:43:15;845.20;1510.40
57030;DHT22;42920;45.306;20.448;2022-08-25T14:45:42;844.90;1587.20
57030;DHT22;42920;45.306;20.448;2022-08-25T14:48:13;820.10;1484.80
57030;DHT22;42920;45.306;20.448;2022-08-25T14:50:40;820.10;1484.80
57030;DHT22;42920;45.306;20.448;2022-08-25T14:53:06;819.80;1510.40
57030;DHT22;42920;45.306;20.448;2022-08-25T14:55:33;819.60;1510.40
57030;DHT22;42920;45.306;20.448;2022-08-25T14:57:59;819.40;1536.00
57030;DHT22;42920;45.306;20.448;2022-08-25T15:00:25;819.30;1561.60
57030;DHT22;42920;45.306;20.448;2022-08-25T15:02:50;819.20;1536.00
57030;DHT22;42920;45.306;20.448;2022-08-25T15:05:20;819.20;1561.60
57030;DHT22;42920;45.306;20.448;2022-08-25T15:07:49;794.50;1612.80
57030;DHT22;42920;45.306;20.448;2022-08-25T15:10:34;794.50;1612.80
57030;DHT22;42920;45.306;20.448;2022-08-25T15:12:59;794.40;1740.80
57030;DHT22;42920;45.306;20.448;2022-08-25T15:20:19;794.30;1792.00
57030;DHT22;42920;45.306;20.448;2022-08-25T15:22:45;794.10;1792.00
57030;DHT22;42920;45.306;20.448;2022-08-25T15:25:12;794.10;1843.20
57030;DHT22;42920;45.306;20.448;2022-08-25T15:27:39;794.20;1766.40
57030;DHT22;42920;45.306;20.448;2022-08-25T15:30:05;794.30;1843.20
57030;DHT22;42920;45.306;20.448;2022-08-25T15:32:31;794.50;1766.40
57030;DHT22;42920;45.306;20.448;2022-08-25T15:34:57;819.20;1766.40
57030;DHT22;42920;45.306;20.448;2022-08-25T15:37:25;819.30;1638.40
57030;DHT22;42920;45.306;20.448;2022-08-25T15:39:50;819.30;1638.40
57030;DHT22;42920;45.306;20.448;2022-08-25T15:42:16;819.30;1664.00
57030;DHT22;42920;45.306;20.448;2022-08-25T15:44:42;819.30;1612.80
57030;DHT22;42920;45.306;20.448;2022-08-25T15:47:09;794.30;1638.40
57030;DHT22;42920;45.306;20.448;2022-08-25T15:49:34;819.40;1612.80
57030;DHT22;42920;45.306;20.448;2022-08-25T15:52:00;819.30;1587.20
57030;DHT22;42920;45.306;20.448;2022-08-25T15:54:27;819.30;1536.00
57030;DHT22;42920;45.306;20.448;2022-08-25T15:56:55;819.30;1536.00
57030;DHT22;42920;45.306;20.448;2022-08-25T15:59:21;819.20;1561.60
57030;DHT22;42920;45.306;20.448;2022-08-25T16:01:46;794.50;1638.40
57030;DHT22;42920;45.306;20.448;2022-08-25T16:04:13;794.30;1536.00
57030;DHT22;42920;45.306;20.448;2022-08-25T16:06:39;794.20;1664.00
57030;DHT22;42920;45.306;20.448;2022-08-25T16:09:05;794.10;1664.00
57030;DHT22;42920;45.306;20.448;2022-08-25T16:11:32;794.00;1740.80
57030;DHT22;42920;45.306;20.448;2022-08-25T16:13:59;794.00;1740.80
57030;DHT22;42920;45.306;20.448;2022-08-25T16:16:27;793.90;1689.60
57030;DHT22;42920;45.306;20.448;2022-08-25T16:18:54;794.00;1766.40
57030;DHT22;42920;45.306;20.448;2022-08-25T16:21:23;793.90;1843.20
57030;DHT22;42920;45.306;20.448;2022-08-25T16:23:59;794.00;1868.80
57030;DHT22;42920;45.306;20.448;2022-08-25T16:26:25;793.90;1920.00
57030;DHT22;42920;45.306;20.448;2022-08-25T16:28:51;793.90;2022.40
57030;DHT22;42920;45.306;20.448;2022-08-25T16:31:17;793.70;2099.20
57030;DHT22;42920;45.306;20.448;2022-08-25T16:33:44;793.70;2124.80
57030;DHT22;42920;45.306;20.448;2022-08-25T16:36:11;793.70;2176.00
57030;DHT22;42920;45.306;20.448;2022-08-25T16:38:39;793.70;2201.60
57030;DHT22;42920;45.306;20.448;2022-08-25T16:41:10;793.60;2227.20
57030;DHT22;42920;45.306;20.448;2022-08-25T16:43:36;768.90;2227.20
57030;DHT22;42920;45.306;20.448;2022-08-25T16:46:07;768.90;2252.80
57030;DHT22;42920;45.306;20.448;2022-08-25T16:48:35;768.80;2252.80
57030;DHT22;42920;45.306;20.448;2022-08-25T16:51:13;768.80;2252.80
57030;DHT22;42920;45.306;20.448;2022-08-25T16:53:39;768.80;2227.20
57030;DHT22;42920;45.306;20.448;2022-08-25T16:56:24;768.80;2278.40
57030;DHT22;42920;45.306;20.448;2022-08-25T16:58:57;768.60;2406.40
57030;DHT22;42920;45.306;20.448;2022-08-25T17:01:25;768.40;2432.00
57030;DHT22;42920;45.306;20.448;2022-08-25T17:03:54;768.40;2432.00
57030;DHT22;42920;45.306;20.448;2022-08-25T17:06:21;768.30;2432.00
57030;DHT22;42920;45.306;20.448;2022-08-25T17:08:48;768.00;2432.00
57030;DHT22;42920;45.306;20.448;2022-08-25T17:11:24;743.30;2432.00
57030;DHT22;42920;45.306;20.448;2022-08-25T17:13:54;743.30;2432.00
57030;DHT22;42920;45.306;20.448;2022-08-25T17:16:22;743.10;2432.00
57030;DHT22;42920;45.306;20.448;2022-08-25T17:18:52;743.20;2432.00
57030;DHT22;42920;45.306;20.448;2022-08-25T17:21:20;743.10;2432.00
57030;DHT22;42920;45.306;20.448;2022-08-25T17:23:47;743.20;2432.00
57030;DHT22;42920;45.306;20.448;2022-08-25T17:26:14;743.20;2432.00
57030;DHT22;42920;45.306;20.448;2022-08-25T17:28:42;743.10;2432.00
57030;DHT22;42920;45.306;20.448;2022-08-25T17:31:09;743.00;2432.00
57030;DHT22;42920;45.306;20.448;2022-08-25T17:33:35;742.90;2432.00
57030;DHT22;42920;45.306;20.448;2022-08-25T17:36:02;742.90;2432.00
57030;DHT22;42920;45.306;20.448;2022-08-25T17:38:29;742.90;2432.00
57030;DHT22;42920;45.306;20.448;2022-08-25T17:40:58;742.90;2432.00
57030;DHT22;42920;45.306;20.448;2022-08-25T17:43:25;742.90;2432.00
57030;DHT22;42920;45.306;20.448;2022-08-25T17:45:53;742.90;2432.00
57030;DHT22;42920;45.306;20.448;2022-08-25T17:48:22;742.90;2432.00
57030;DHT22;42920;45.306;20.448;2022-08-25T17:50:48;742.80;2432.00
57030;DHT22;42920;45.306;20.448;2022-08-25T17:53:14;742.80;2432.00
57030;DHT22;42920;45.306;20.448;2022-08-25T17:55:42;742.80;2432.00
57030;DHT22;42920;45.306;20.448;2022-08-25T17:58:10;742.80;2432.00
57030;DHT22;42920;45.306;20.448;2022-08-25T18:00:37;742.80;2432.00
57030;DHT22;42920;45.306;20.448;2022-08-25T18:03:04;742.60;2432.00
57030;DHT22;42920;45.306;20.448;2022-08-25T18:05:33;742.60;2432.00
57030;DHT22;42920;45.306;20.448;2022-08-25T18:07:59;742.60;2432.00
57030;DHT22;42920;45.306;20.448;2022-08-25T18:10:26;742.60;2432.00
57030;DHT22;42920;45.306;20.448;2022-08-25T18:12:51;742.50;2432.00
57030;DHT22;42920;45.306;20.448;2022-08-25T18:15:17;742.50;2432.00
57030;DHT22;42920;45.306;20.448;2022-08-25T18:17:44;717.70;2432.00